Andalusia, AL

10:50 PM CDT on August 31, 2016 (GMT -0500)
Chigger Hill off Moore Rd | | Change Station

Elev 280 ft 31.25 °N, 86.50 °W | Updated 3 seconds ago

Clear
Clear
77.1 °F
Feels Like 78 °F
N
0.0
Wind Variable Wind from East
Gusts 0.0 mph

Today
High -- | Low -- °F
--% Chance of Precip.
Yesterday
High -- | Low -- °F
Precip. -- in
Pressure 29.86 in
Visibility 10.0 miles
Clouds Clear
Heat Index 78 °F
Dew Point 73 °F
Humidity 88%
Rainfall 0.00 in
Snow Depth Not available.
6:22 AM 7:10 PM
Waning Crescent, 0% visible
METAR K79J 010256Z AUTO 08005KT 10SM CLR 28/22 A2987 RMK AO2 SLP109 T02830222 51016
Pressure 29.86 in
Visibility 10.0 miles
Clouds Clear
Heat Index 78 °F
Dew Point 73 °F
Humidity 88%
Rainfall 0.00 in
Snow Depth Not available.
6:22 AM 7:10 PM
Waning Crescent, 0% visible
METAR K79J 010256Z AUTO 08005KT 10SM CLR 28/22 A2987 RMK AO2 SLP109 T02830222 51016
A tropical storm warning and hurricane watch is in effect for parts of the northern Florida Gulf Coast as Tropical Storm Hermine intensifies in the eastern Gulf of Mexico. A tropical storm watch is in effect for parts of the Atlantic coast of Georgia and Florida, as Hermine is expected to move near or just inland from the Southeast U.S. Coast on Friday and Friday night. Very heavy rains are possible near Hermine's path.

10-Day Weather Forecast

Almanac

Astronomy

Aug. 31, 2016 Rise Set
Actual Time
Civil Twilight
Nautical Twilight
Astronomical Twilight
Moon
Length of Visible Light
Length of Day
Tomorrow will be .
, % of the Moon is Illuminated

Today's Extremes

State Highs State Lows

Community

WunderPhotos

Upload Photos

1,936,291 photos uploaded!

WunderBlog® & News

Nearby

Air Quality

  Air Quality AQ Index Pollutant
Not available.

Snow Depth

Station Depth Elevation

Earthquake Activity

City Distance Mag. Time & Date
Minimum magnitude displayed is 2.5.

Coastal Water Temperatures

Place Temperature

Stations

Nearby Weather Stations

Station Location Temp. Windchill Dew Point Humidity Wind Precip. Elev Updated Type
                   

Watches & Warnings

There are currently no watches in effect.